Time;durP1;ratioP1;P1;durP2;ratioP2;P2;SDS_P1;SDS_P2;PMS_P1;PMS_P2;Temp;Humidity;BMP_temperature;BMP_pressure;BME280_temperature;BME280_humidity;BME280_pressure;Samples;Min_cycle;Max_cycle;Signal;HPM_P1;HPM_P2
2022/04/24 00:01:30;;;;;;;;;;;;;;;9.12;69.39;94777.94;5157220;27;988;-50
2022/04/24 00:03:56;;;;;;;;;;;;;;;9.03;69.33;94771.78;5156990;27;1087;-50
2022/04/24 00:06:22;;;;;;;;;;;;;;;8.95;70.21;94771.72;5156941;27;1902;-50
2022/04/24 00:08:49;;;;;;;;;;;;;;;9.09;69.96;94776.44;5157274;27;1019;-50
2022/04/24 00:11:16;;;;;;;;;;;;;;;9.23;69.68;94777.66;5157046;27;1038;-50
2022/04/24 00:13:42;;;;;;;;;;;;;;;9.28;68.66;94774.53;5156775;27;1032;-50
2022/04/24 00:16:09;;;;;;;;;;;;;;;8.99;68.72;94770.41;5156916;27;1071;-50
2022/04/24 00:18:37;;;;;;;;;;;;;;;8.76;70.36;94773.66;5156424;27;1023;-50
2022/04/24 00:21:04;;;;;;;;;;;;;;;8.64;71.42;94766.91;5156875;27;1078;-50
2022/04/24 00:23:31;;;;;;;;;;;;;;;8.85;70.53;94777.19;5156358;27;1031;-50
2022/04/24 00:25:57;;;;;;;;;;;;;;;9.14;69.84;94775.97;5156529;27;1910;-50
2022/04/24 00:28:23;;;;;;;;;;;;;;;9.36;69.32;94777.19;5156755;27;1047;-50
2022/04/24 00:30:49;;;;;;;;;;;;;;;9.32;69.39;94783.88;5156551;27;996;-50
2022/04/24 00:33:15;;;;;;;;;;;;;;;9.22;69.41;94784.00;5156548;27;1195;-50
2022/04/24 00:35:41;;;;;;;;;;;;;;;9.14;69.63;94789.28;5156287;27;1032;-50
2022/04/24 00:38:07;;;;;;;;;;;;;;;8.94;69.72;94789.56;5156257;27;1015;-50
2022/04/24 00:40:33;;;;;;;;;;;;;;;8.51;70.64;94788.66;5156005;27;1083;-50
2022/04/24 00:42:59;;;;;;;;;;;;;;;8.60;71.16;94786.88;5155230;27;1031;-50
2022/04/24 00:45:25;;;;;;;;;;;;;;;8.66;70.54;94794.25;5156039;27;1973;-50
2022/04/24 00:47:51;;;;;;;;;;;;;;;8.57;70.59;94792.53;5156234;27;1042;-50
2022/04/24 00:50:17;;;;;;;;;;;;;;;8.58;70.75;94779.03;5156039;27;1028;-50
2022/04/24 00:52:45;;;;;;;;;;;;;;;8.76;70.78;94780.78;5155906;27;984;-50
2022/04/24 00:55:11;;;;;;;;;;;;;;;8.78;69.93;94789.47;5156173;27;1023;-50
2022/04/24 00:57:40;;;;;;;;;;;;;;;8.65;70.08;94791.72;5156118;27;1101;-50
2022/04/24 01:00:07;;;;;;;;;;;;;;;8.38;70.92;94793.53;5155864;27;1074;-50
2022/04/24 01:02:33;;;;;;;;;;;;;;;8.27;71.79;94797.31;5156070;27;1015;-50
2022/04/24 01:05:00;;;;;;;;;;;;;;;8.26;71.82;94795.63;5155788;27;1983;-49
2022/04/24 01:07:26;;;;;;;;;;;;;;;8.50;71.77;94797.66;5155948;27;1000;-50
2022/04/24 01:09:52;;;;;;;;;;;;;;;8.67;71.90;94798.59;5155634;27;1042;-50
2022/04/24 01:12:18;;;;;;;;;;;;;;;8.74;71.41;94788.13;5155910;27;960;-50
2022/04/24 01:14:44;;;;;;;;;;;;;;;8.77;71.32;94793.97;5155795;27;976;-50
2022/04/24 01:17:11;;;;;;;;;;;;;;;8.85;70.64;94795.84;5155682;27;972;-49
2022/04/24 01:19:37;;;;;;;;;;;;;;;8.63;70.38;94802.53;5155459;27;1115;-50
2022/04/24 01:22:03;;;;;;;;;;;;;;;8.43;70.74;94801.09;5155426;27;965;-50
2022/04/24 01:24:29;;;;;;;;;;;;;;;8.31;71.11;94797.81;5155267;27;1901;-50
2022/04/24 01:26:56;;;;;;;;;;;;;;;8.27;71.12;94796.44;5155709;27;1059;-50
2022/04/24 01:29:22;;;;;;;;;;;;;;;8.24;70.91;94807.44;5154643;27;1003;-50
2022/04/24 01:31:50;;;;;;;;;;;;;;;8.23;71.46;94798.59;5155698;27;1829;-50
2022/04/24 01:34:17;;;;;;;;;;;;;;;8.23;70.71;94806.56;5155459;27;1014;-50
2022/04/24 01:36:43;;;;;;;;;;;;;;;8.15;71.12;94806.53;5155559;27;1015;-50
2022/04/24 01:39:10;;;;;;;;;;;;;;;8.21;71.14;94808.56;5155118;27;1063;-50
2022/04/24 01:41:36;;;;;;;;;;;;;;;8.22;70.94;94810.25;5155157;27;1220;-50
2022/04/24 01:44:02;;;;;;;;;;;;;;;8.11;70.77;94807.81;5155277;27;2002;-50
2022/04/24 01:46:28;;;;;;;;;;;;;;;7.88;71.87;94808.31;5155131;27;1981;-50
2022/04/24 01:48:54;;;;;;;;;;;;;;;7.98;72.00;94811.69;5155436;27;1014;-50
2022/04/24 01:51:20;;;;;;;;;;;;;;;8.05;71.77;94814.59;5155455;27;1037;-49
2022/04/24 01:53:46;;;;;;;;;;;;;;;8.03;71.49;94813.94;5154955;27;1099;-50
2022/04/24 01:56:12;;;;;;;;;;;;;;;7.93;71.95;94816.69;5155329;27;1209;-50
2022/04/24 01:58:39;;;;;;;;;;;;;;;7.79;72.60;94819.84;5155397;27;968;-49
2022/04/24 02:01:06;;;;;;;;;;;;;;;7.95;72.13;94821.84;5155185;27;1044;-50
2022/04/24 02:03:32;;;;;;;;;;;;;;;8.01;71.94;94816.72;5155333;27;1063;-50
2022/04/24 02:05:58;;;;;;;;;;;;;;;7.84;71.80;94814.09;5154941;27;2001;-50
2022/04/24 02:08:24;;;;;;;;;;;;;;;7.62;72.64;94822.34;5155140;27;1089;-50
2022/04/24 02:10:52;;;;;;;;;;;;;;;7.57;73.30;94815.81;5155163;27;1202;-50
2022/04/24 02:13:18;;;;;;;;;;;;;;;7.61;72.78;94814.53;5155248;27;956;-50
2022/04/24 02:15:45;;;;;;;;;;;;;;;7.66;72.74;94820.22;5155199;27;1041;-50
2022/04/24 02:18:11;;;;;;;;;;;;;;;7.65;72.40;94823.91;5155044;27;993;-50
2022/04/24 02:20:37;;;;;;;;;;;;;;;7.57;72.79;94822.00;5155452;27;1016;-50
2022/04/24 02:23:03;;;;;;;;;;;;;;;7.74;72.79;94830.97;5154698;27;1094;-50
2022/04/24 02:25:30;;;;;;;;;;;;;;;7.88;72.32;94834.09;5155036;27;1913;-50
2022/04/24 02:27:56;;;;;;;;;;;;;;;7.79;72.17;94838.50;5155122;27;1050;-50
2022/04/24 02:30:24;;;;;;;;;;;;;;;7.68;72.29;94834.22;5154750;27;1857;-50
2022/04/24 02:32:50;;;;;;;;;;;;;;;7.58;72.63;94836.94;5155047;27;1023;-50
2022/04/24 02:35:16;;;;;;;;;;;;;;;7.41;72.81;94837.75;5154677;27;1032;-50
2022/04/24 02:37:43;;;;;;;;;;;;;;;7.44;73.01;94842.81;5154614;27;1198;-50
2022/04/24 02:40:09;;;;;;;;;;;;;;;7.65;72.67;94847.00;5154756;27;1241;-50
2022/04/24 02:42:36;;;;;;;;;;;;;;;7.74;72.44;94840.75;5158573;27;1022;-50
2022/04/24 02:45:03;;;;;;;;;;;;;;;7.56;72.43;94841.59;5158408;27;1986;-50
2022/04/24 02:47:29;;;;;;;;;;;;;;;7.42;72.29;94840.28;5158575;27;960;-50
2022/04/24 02:49:55;;;;;;;;;;;;;;;7.39;72.80;94847.72;5158457;27;1023;-50
2022/04/24 02:52:21;;;;;;;;;;;;;;;7.32;72.57;94830.69;5158372;27;1063;-50
2022/04/24 02:54:47;;;;;;;;;;;;;;;7.26;73.77;94840.09;5158337;27;1039;-50
2022/04/24 02:57:13;;;;;;;;;;;;;;;7.07;74.47;94846.34;5158564;27;1031;-50
2022/04/24 02:59:48;;;;;;;;;;;;;;;7.06;75.03;94846.47;5158231;27;1024;-50
2022/04/24 03:02:14;;;;;;;;;;;;;;;7.28;73.65;94847.91;5158529;27;1063;-50
2022/04/24 03:04:40;;;;;;;;;;;;;;;7.52;73.49;94850.03;5157948;27;1990;-50
2022/04/24 03:07:06;;;;;;;;;;;;;;;7.49;73.11;94856.47;5158275;27;1014;-50
2022/04/24 03:09:33;;;;;;;;;;;;;;;7.37;72.89;94863.81;5158348;27;1073;-50
2022/04/24 03:11:59;;;;;;;;;;;;;;;7.41;72.35;94861.72;5158001;27;1082;-50
2022/04/24 03:14:26;;;;;;;;;;;;;;;7.18;72.56;94862.09;5158057;27;976;-50
2022/04/24 03:16:52;;;;;;;;;;;;;;;7.00;73.46;94859.41;5158153;27;1011;-50
2022/04/24 03:19:18;;;;;;;;;;;;;;;6.93;73.86;94863.63;5157759;27;1078;-50
2022/04/24 03:21:45;;;;;;;;;;;;;;;6.99;73.68;94867.50;5158066;27;957;-50
2022/04/24 03:24:11;;;;;;;;;;;;;;;7.17;73.70;94863.09;5157808;27;1016;-50
2022/04/24 03:26:37;;;;;;;;;;;;;;;7.08;73.18;94863.97;5157919;27;1980;-50
2022/04/24 03:29:03;;;;;;;;;;;;;;;7.01;73.57;94868.19;5157808;27;1038;-50
2022/04/24 03:31:29;;;;;;;;;;;;;;;7.03;73.52;94867.06;5157945;27;1062;-50
2022/04/24 03:33:55;;;;;;;;;;;;;;;7.11;73.34;94863.66;5157524;27;1046;-50
2022/04/24 03:36:21;;;;;;;;;;;;;;;7.12;73.13;94869.84;5157432;27;1003;-50
2022/04/24 03:38:47;;;;;;;;;;;;;;;7.17;73.25;94863.09;5157748;27;964;-50
2022/04/24 03:41:13;;;;;;;;;;;;;;;7.36;73.11;94867.47;5157283;27;1193;-50
2022/04/24 03:43:39;;;;;;;;;;;;;;;7.41;73.82;94869.69;5157682;27;1039;-50
2022/04/24 03:46:05;;;;;;;;;;;;;;;7.40;73.57;94873.34;5157328;27;1906;-49
2022/04/24 03:48:31;;;;;;;;;;;;;;;7.46;72.60;94880.72;5157231;27;1846;-49
2022/04/24 03:50:57;;;;;;;;;;;;;;;7.36;72.55;94882.59;5157390;27;1043;-49
2022/04/24 03:53:23;;;;;;;;;;;;;;;7.20;72.75;94885.88;5156602;27;1066;-49
2022/04/24 03:55:49;;;;;;;;;;;;;;;7.18;73.42;94890.53;5157118;27;1098;-50
2022/04/24 03:58:15;;;;;;;;;;;;;;;7.37;73.59;94884.28;5157192;27;1059;-49
2022/04/24 04:00:41;;;;;;;;;;;;;;;7.56;73.00;94894.78;5157155;27;960;-49
2022/04/24 04:03:08;;;;;;;;;;;;;;;7.61;72.51;94889.88;5157156;27;1026;-49
2022/04/24 04:05:37;;;;;;;;;;;;;;;7.65;72.38;94906.38;5157377;27;1983;-49
2022/04/24 04:08:04;;;;;;;;;;;;;;;7.55;72.70;94900.25;5156884;27;1035;-50
2022/04/24 04:10:30;;;;;;;;;;;;;;;7.62;72.44;94901.34;5157153;27;987;-49
2022/04/24 04:12:56;;;;;;;;;;;;;;;7.65;72.88;94898.41;5156853;27;1038;-49
2022/04/24 04:15:22;;;;;;;;;;;;;;;7.82;72.60;94900.25;5156677;27;1090;-49
2022/04/24 04:17:48;;;;;;;;;;;;;;;7.86;72.47;94899.97;5156638;27;1010;-50
2022/04/24 04:20:14;;;;;;;;;;;;;;;8.01;71.61;94901.94;5156536;27;1107;-49
2022/04/24 04:22:51;;;;;;;;;;;;;;;8.30;71.67;94897.38;5156810;27;964;-49
2022/04/24 04:25:21;;;;;;;;;;;;;;;8.86;70.20;94897.97;5156822;27;1902;-49
2022/04/24 04:27:47;;;;;;;;;;;;;;;9.28;69.61;94897.25;5155403;27;964;-49
2022/04/24 04:30:14;;;;;;;;;;;;;;;9.99;67.08;94905.81;5156393;27;1130;-50
2022/04/24 04:32:40;;;;;;;;;;;;;;;10.98;64.22;94901.38;5156395;27;1090;-49
2022/04/24 04:35:09;;;;;;;;;;;;;;;12.20;61.41;94899.25;5156572;27;980;-50
2022/04/24 04:37:36;;;;;;;;;;;;;;;13.10;58.86;94903.91;5156456;27;995;-50
2022/04/24 04:40:02;;;;;;;;;;;;;;;13.83;56.85;94905.00;5156334;27;1103;-50
2022/04/24 04:42:28;;;;;;;;;;;;;;;14.38;55.11;94912.63;5156503;27;994;-50
2022/04/24 04:44:57;;;;;;;;;;;;;;;14.81;54.49;94910.81;5156067;27;1905;-50
2022/04/24 04:47:24;;;;;;;;;;;;;;;14.81;53.86;94910.81;5156082;27;1018;-49
2022/04/24 04:49:50;;;;;;;;;;;;;;;14.64;54.40;94907.59;5156007;27;1024;-50
2022/04/24 04:52:16;;;;;;;;;;;;;;;14.02;56.25;94913.50;5156296;27;1035;-50
2022/04/24 04:54:42;;;;;;;;;;;;;;;13.56;57.94;94916.38;5156294;27;1003;-50
2022/04/24 04:57:08;;;;;;;;;;;;;;;13.19;59.55;94913.56;5156055;27;1938;-50
2022/04/24 04:59:34;;;;;;;;;;;;;;;13.00;59.26;94909.53;5155831;27;1051;-50
2022/04/24 05:02:00;;;;;;;;;;;;;;;12.87;60.12;94912.00;5156087;27;1022;-49
2022/04/24 05:04:26;;;;;;;;;;;;;;;13.06;59.54;94914.16;5156011;27;952;-49
2022/04/24 05:06:52;;;;;;;;;;;;;;;13.83;57.82;94915.75;5155824;27;972;-49
2022/04/24 05:09:18;;;;;;;;;;;;;;;14.79;55.19;94912.88;5155616;27;1074;-50
2022/04/24 05:11:44;;;;;;;;;;;;;;;15.01;54.09;94904.81;5155906;27;968;-50
2022/04/24 05:14:10;;;;;;;;;;;;;;;15.18;54.24;94911.56;5155645;27;986;-50
2022/04/24 05:16:36;;;;;;;;;;;;;;;15.67;53.14;94917.91;5155882;27;956;-50
2022/04/24 05:19:05;;;;;;;;;;;;;;;16.09;51.52;94910.69;5155845;27;1019;-51
2022/04/24 05:21:32;;;;;;;;;;;;;;;16.57;49.85;94904.41;5155430;27;1070;-50
2022/04/24 05:23:58;;;;;;;;;;;;;;;16.72;49.67;94909.63;5155662;27;953;-50
2022/04/24 05:26:24;;;;;;;;;;;;;;;16.35;50.17;94903.72;5155413;27;1905;-50
2022/04/24 05:28:50;;;;;;;;;;;;;;;15.92;50.78;94903.97;5155661;27;1026;-49
2022/04/24 05:31:16;;;;;;;;;;;;;;;15.66;51.97;94908.16;5155304;27;1087;-49
2022/04/24 05:33:42;;;;;;;;;;;;;;;15.12;53.66;94906.97;5155639;27;1024;-50
2022/04/24 05:36:08;;;;;;;;;;;;;;;14.63;54.78;94905.91;5155560;27;1007;-51
2022/04/24 05:38:34;;;;;;;;;;;;;;;13.90;56.92;94901.53;5155221;27;1032;-50
2022/04/24 05:41:00;;;;;;;;;;;;;;;13.61;58.60;94904.06;5155234;27;1354;-50
2022/04/24 05:43:26;;;;;;;;;;;;;;;13.64;58.75;94900.19;5155533;27;1054;-50
2022/04/24 05:45:52;;;;;;;;;;;;;;;13.81;58.19;94907.03;5155089;27;1917;-50
2022/04/24 05:48:18;;;;;;;;;;;;;;;13.94;58.32;94902.84;5155141;27;1091;-51
2022/04/24 05:50:44;;;;;;;;;;;;;;;14.20;58.18;94903.13;5155011;27;1016;-49
2022/04/24 05:53:11;;;;;;;;;;;;;;;14.49;57.02;94896.00;5155178;27;1027;-49
2022/04/24 05:55:37;;;;;;;;;;;;;;;14.53;56.79;94902.69;5155380;27;1010;-49
2022/04/24 05:58:03;;;;;;;;;;;;;;;14.64;57.01;94904.03;5155090;27;1062;-49
2022/04/24 06:00:29;;;;;;;;;;;;;;;14.73;57.41;94899.38;5154913;27;1016;-49
2022/04/24 06:02:55;;;;;;;;;;;;;;;14.89;56.44;94895.56;5154992;27;1027;-49
2022/04/24 06:05:21;;;;;;;;;;;;;;;14.92;56.06;94896.03;5155116;27;1905;-48
2022/04/24 06:07:48;;;;;;;;;;;;;;;15.18;57.18;94892.72;5154948;27;1110;-49
2022/04/24 06:10:14;;;;;;;;;;;;;;;15.32;55.64;94882.84;5154941;27;1082;-49
2022/04/24 06:12:44;;;;;;;;;;;;;;;15.43;55.32;94884.19;5154985;27;1027;-49
2022/04/24 06:15:15;;;;;;;;;;;;;;;15.61;56.25;94881.81;5154939;27;1007;-49
2022/04/24 06:17:42;;;;;;;;;;;;;;;15.99;54.88;94884.09;5159304;27;1059;-49
2022/04/24 06:20:08;;;;;;;;;;;;;;;16.26;53.95;94880.63;5159233;27;1114;-49
2022/04/24 06:22:41;;;;;;;;;;;;;;;16.64;53.31;94882.81;5159249;27;1066;-49
2022/04/24 06:25:07;;;;;;;;;;;;;;;16.75;52.59;94879.50;5158833;27;1905;-49
2022/04/24 06:27:33;;;;;;;;;;;;;;;17.09;51.63;94875.84;5159105;27;1056;-49
2022/04/24 06:29:59;;;;;;;;;;;;;;;17.44;51.07;94866.66;5159092;27;1050;-49
2022/04/24 06:32:28;;;;;;;;;;;;;;;17.67;50.65;94864.31;5158770;27;1212;-49
2022/04/24 06:34:54;;;;;;;;;;;;;;;17.97;50.72;94866.53;5158743;27;1104;-49
2022/04/24 06:37:20;;;;;;;;;;;;;;;18.17;49.81;94868.31;5158662;27;1178;-49
2022/04/24 06:39:46;;;;;;;;;;;;;;;18.60;49.08;94873.09;5158488;27;1086;-50
2022/04/24 06:42:12;;;;;;;;;;;;;;;18.77;48.34;94873.41;5158519;27;1087;-49
2022/04/24 06:44:38;;;;;;;;;;;;;;;18.97;47.72;94873.28;5158736;27;1910;-49
2022/04/24 06:47:04;;;;;;;;;;;;;;;19.37;48.07;94870.22;5158802;27;952;-49
2022/04/24 06:49:30;;;;;;;;;;;;;;;19.72;46.10;94875.13;5158639;27;975;-49
2022/04/24 06:51:56;;;;;;;;;;;;;;;19.87;46.18;94870.19;5158354;27;1118;-49
2022/04/24 06:54:22;;;;;;;;;;;;;;;20.39;45.36;94875.19;5158382;27;1000;-49
2022/04/24 06:56:48;;;;;;;;;;;;;;;20.79;43.54;94866.50;5158242;27;1040;-49
2022/04/24 06:59:14;;;;;;;;;;;;;;;20.84;42.98;94866.66;5158593;27;1035;-49
2022/04/24 07:01:40;;;;;;;;;;;;;;;20.88;44.08;94861.59;5158457;27;940;-49
2022/04/24 07:04:06;;;;;;;;;;;;;;;21.25;44.50;94859.53;5158062;27;1036;-49
2022/04/24 07:06:32;;;;;;;;;;;;;;;21.57;43.95;94851.03;5158175;27;1910;-49
2022/04/24 07:08:58;;;;;;;;;;;;;;;21.61;41.64;94852.25;5158371;27;976;-49
2022/04/24 07:11:24;;;;;;;;;;;;;;;21.41;42.66;94844.41;5157943;27;1024;-49
2022/04/24 07:13:50;;;;;;;;;;;;;;;21.71;42.25;94848.94;5158247;27;1027;-49
2022/04/24 07:16:16;;;;;;;;;;;;;;;21.73;43.00;94850.34;5158213;27;1030;-49
2022/04/24 07:18:42;;;;;;;;;;;;;;;21.76;42.75;94849.00;5158230;27;983;-49
2022/04/24 07:21:08;;;;;;;;;;;;;;;21.78;41.93;94847.72;5158205;27;990;-49
2022/04/24 07:23:35;;;;;;;;;;;;;;;21.75;41.90;94847.38;5158116;27;995;-49
2022/04/24 07:26:01;;;;;;;;;;;;;;;21.78;41.91;94841.47;5157604;27;1913;-49
2022/04/24 07:28:27;;;;;;;;;;;;;;;21.75;41.73;94839.22;5156764;27;976;-49
2022/04/24 07:30:53;;;;;;;;;;;;;;;21.89;42.44;94843.31;5157946;27;984;-49
2022/04/24 07:33:19;;;;;;;;;;;;;;;21.87;40.18;94836.47;5157832;27;1062;-49
2022/04/24 07:35:45;;;;;;;;;;;;;;;21.90;41.97;94833.28;5157746;27;1043;-49
2022/04/24 07:38:11;;;;;;;;;;;;;;;22.01;41.41;94830.53;5157545;27;1024;-49
2022/04/24 07:40:39;;;;;;;;;;;;;;;22.23;40.95;94838.03;5157244;27;1588;-49
2022/04/24 07:43:06;;;;;;;;;;;;;;;22.05;40.57;94838.22;5157435;27;1015;-49
2022/04/24 07:45:37;;;;;;;;;;;;;;;21.74;41.90;94827.50;5157639;27;2394;-49
2022/04/24 07:48:03;;;;;;;;;;;;;;;21.72;41.00;94831.50;5157303;27;1845;-49
2022/04/24 07:50:30;;;;;;;;;;;;;;;21.85;41.26;94823.09;5157348;27;960;-48
2022/04/24 07:52:57;;;;;;;;;;;;;;;21.72;40.60;94820.63;5157518;27;968;-49
2022/04/24 07:55:24;;;;;;;;;;;;;;;21.50;40.83;94818.53;5156973;27;1174;-49
2022/04/24 07:57:54;;;;;;;;;;;;;;;21.47;41.27;94821.72;5157149;27;995;-49
2022/04/24 08:00:21;;;;;;;;;;;;;;;21.66;42.09;94822.41;5157412;27;995;-48
2022/04/24 08:03:07;;;;;;;;;;;;;;;22.04;40.75;94821.03;5157291;27;945;-49
2022/04/24 08:05:38;;;;;;;;;;;;;;;22.15;40.72;94819.38;5156822;27;1910;-49
2022/04/24 08:08:07;;;;;;;;;;;;;;;22.44;40.66;94820.22;5157171;27;1020;-49
2022/04/24 08:10:34;;;;;;;;;;;;;;;22.51;38.58;94823.63;5156851;27;1028;-49
2022/04/24 08:13:04;;;;;;;;;;;;;;;22.59;38.90;94814.25;5156859;27;1094;-49
2022/04/24 08:15:30;;;;;;;;;;;;;;;22.52;39.85;94808.09;5156703;27;1047;-49
2022/04/24 08:17:57;;;;;;;;;;;;;;;22.51;39.67;94796.41;5156764;27;1291;-55
2022/04/24 08:20:23;;;;;;;;;;;;;;;22.30;39.10;94792.47;5156791;27;1076;-48
2022/04/24 08:22:50;;;;;;;;;;;;;;;22.47;39.38;94792.50;5156593;27;1050;-49
2022/04/24 08:25:20;;;;;;;;;;;;;;;22.47;39.44;94780.78;5156491;27;1986;-49
2022/04/24 08:27:47;;;;;;;;;;;;;;;22.58;40.38;94779.91;5156470;27;1186;-48
2022/04/24 08:30:15;;;;;;;;;;;;;;;22.78;40.32;94784.88;5156465;27;1918;-50
2022/04/24 08:32:42;;;;;;;;;;;;;;;22.89;40.06;94781.25;5156278;27;1343;-50
2022/04/24 08:35:10;;;;;;;;;;;;;;;23.13;39.37;94765.59;5156256;27;1055;-49
2022/04/24 08:37:36;;;;;;;;;;;;;;;23.47;39.57;94765.53;5156372;27;1036;-49
2022/04/24 08:40:03;;;;;;;;;;;;;;;23.38;37.56;94770.59;5156012;27;1233;-49
2022/04/24 08:42:30;;;;;;;;;;;;;;;23.18;37.50;94762.09;5156333;27;1075;-49
2022/04/24 08:44:56;;;;;;;;;;;;;;;23.21;38.25;94758.06;5156264;27;1914;-49
2022/04/24 08:47:23;;;;;;;;;;;;;;;23.24;38.51;94754.81;5156067;27;1024;-49
2022/04/24 08:49:52;;;;;;;;;;;;;;;23.29;38.20;94746.72;5156109;27;1078;-49
2022/04/24 08:52:20;;;;;;;;;;;;;;;23.74;38.88;94748.44;5156439;27;993;-50
2022/04/24 08:54:46;;;;;;;;;;;;;;;23.90;38.50;94750.31;5156376;27;960;-51
2022/04/24 08:57:12;;;;;;;;;;;;;;;24.02;37.06;94750.19;5156008;27;1056;-50
2022/04/24 08:59:39;;;;;;;;;;;;;;;24.26;38.24;94742.50;5156027;27;960;-49
2022/04/24 09:02:05;;;;;;;;;;;;;;;24.11;37.86;94742.34;5155827;27;1172;-49
2022/04/24 09:04:35;;;;;;;;;;;;;;;24.16;38.60;94737.78;5156249;27;1054;-50
2022/04/24 09:07:02;;;;;;;;;;;;;;;24.22;38.03;94735.91;5156096;27;1905;-49
2022/04/24 09:09:29;;;;;;;;;;;;;;;24.26;38.01;94725.31;5156173;27;975;-49
2022/04/24 09:12:08;;;;;;;;;;;;;;;24.18;37.82;94729.31;5155705;27;1091;-48
2022/04/24 09:14:34;;;;;;;;;;;;;;;24.32;37.41;94719.66;5155739;27;1011;-49
2022/04/24 09:17:04;;;;;;;;;;;;;;;24.44;37.33;94715.94;5155625;27;1203;-50
2022/04/24 09:19:31;;;;;;;;;;;;;;;24.46;37.02;94709.13;5155941;27;1039;-49
2022/04/24 09:22:07;;;;;;;;;;;;;;;24.62;35.96;94710.09;5155892;27;969;-50
2022/04/24 09:24:43;;;;;;;;;;;;;;;24.55;35.93;94706.78;5156029;27;1206;-50
2022/04/24 09:27:10;;;;;;;;;;;;;;;24.83;37.54;94702.09;5155835;27;956;-50
2022/04/24 09:29:37;;;;;;;;;;;;;;;25.15;37.54;94699.31;5155492;27;959;-49
2022/04/24 09:32:09;;;;;;;;;;;;;;;25.24;37.01;94703.22;5155617;27;1028;-50
2022/04/24 09:34:36;;;;;;;;;;;;;;;25.15;37.29;94699.31;5155672;27;1047;-49
2022/04/24 09:37:03;;;;;;;;;;;;;;;24.70;36.29;94695.97;5155708;27;972;-48
2022/04/24 09:39:33;;;;;;;;;;;;;;;24.78;36.31;94697.41;5155608;27;1068;-49
2022/04/24 09:42:05;;;;;;;;;;;;;;;24.84;36.92;94688.16;5155144;27;1094;-49
2022/04/24 09:44:44;;;;;;;;;;;;;;;24.76;36.97;94688.66;5155271;27;1612;-49
2022/04/24 09:47:11;;;;;;;;;;;;;;;24.83;37.44;94681.03;5155244;27;1844;-49
2022/04/24 09:49:41;;;;;;;;;;;;;;;25.08;37.07;94676.81;5155550;27;1055;-49
2022/04/24 09:52:09;;;;;;;;;;;;;;;25.09;37.33;94678.47;5154576;27;977;-49
2022/04/24 09:54:35;;;;;;;;;;;;;;;25.13;37.66;94669.47;5155346;27;1014;-49
2022/04/24 09:57:02;;;;;;;;;;;;;;;25.21;38.58;94659.13;5155159;27;1901;-48
2022/04/24 09:59:28;;;;;;;;;;;;;;;25.26;37.28;94649.06;5155383;27;1010;-50
2022/04/24 10:01:54;;;;;;;;;;;;;;;25.20;37.38;94644.63;5155012;27;1139;-50
2022/04/24 10:04:21;;;;;;;;;;;;;;;25.22;38.54;94638.91;5155050;27;1095;-49
2022/04/24 10:06:47;;;;;;;;;;;;;;;25.25;37.68;94635.66;5154988;27;1984;-49
2022/04/24 10:09:14;;;;;;;;;;;;;;;25.27;38.43;94625.25;5154956;27;1024;-49
2022/04/24 10:11:40;;;;;;;;;;;;;;;25.43;38.15;94632.47;5155302;27;972;-49
2022/04/24 10:27:22;;;;;;;;;;;;;;;25.48;37.12;94596.09;5412258;22;1635;-57
2022/04/24 10:29:49;;;;;;;;;;;;;;;25.36;35.87;94592.75;4993720;28;1082;-48
2022/04/24 10:32:30;;;;;;;;;;;;;;;25.36;37.31;94595.50;4993594;28;1099;-48
2022/04/24 10:34:56;;;;;;;;;;;;;;;25.42;38.13;94588.94;4993973;28;1113;-48
2022/04/24 10:37:29;;;;;;;;;;;;;;;25.42;37.25;94581.59;4993879;28;1038;-48
2022/04/24 10:39:58;;;;;;;;;;;;;;;25.54;37.77;94575.88;4989211;28;1527;-49
2022/04/24 10:42:34;;;;;;;;;;;;;;;25.51;37.03;94571.72;4993458;28;1065;-50
2022/04/24 10:45:08;;;;;;;;;;;;;;;25.57;37.36;94564.38;4993261;28;1996;-49
2022/04/24 10:47:45;;;;;;;;;;;;;;;25.76;34.82;94559.22;4993819;28;1014;-49
2022/04/24 10:50:11;;;;;;;;;;;;;;;25.92;34.48;94529.16;4993838;28;966;-49
2022/04/24 10:52:44;;;;;;;;;;;;;;;25.96;34.66;94561.19;4993771;28;1033;-49
2022/04/24 10:55:12;;;;;;;;;;;;;;;25.99;34.98;94563.41;4993677;28;987;-48
2022/04/24 10:57:42;;;;;;;;;;;;;;;25.91;35.98;94572.09;4993849;28;1003;-49
2022/04/24 11:00:16;;;;;;;;;;;;;;;25.89;34.18;94561.41;4993736;28;1038;-49
2022/04/24 11:02:43;;;;;;;;;;;;;;;25.66;29.22;94557.28;4995288;28;1053;-49
2022/04/24 11:05:10;;;;;;;;;;;;;;;25.57;29.79;94555.34;4996977;28;1943;-49
2022/04/24 11:07:36;;;;;;;;;;;;;;;25.72;29.98;94558.09;4997034;28;1079;-49
2022/04/24 11:10:04;;;;;;;;;;;;;;;25.84;28.27;94552.41;4997011;28;1878;-49
2022/04/24 11:12:34;;;;;;;;;;;;;;;25.79;28.72;94546.91;4997150;28;959;-49
2022/04/24 11:15:20;;;;;;;;;;;;;;;25.79;29.35;94542.25;4997146;28;1053;-48
2022/04/24 11:17:46;;;;;;;;;;;;;;;25.64;28.21;94534.81;4996495;28;1295;-48
2022/04/24 11:20:13;;;;;;;;;;;;;;;25.57;29.38;94526.03;4996776;28;1043;-48
2022/04/24 11:22:52;;;;;;;;;;;;;;;25.59;28.81;94515.69;4996931;28;978;-48
2022/04/24 11:25:19;;;;;;;;;;;;;;;25.56;29.71;94518.94;4996746;28;1918;-49
2022/04/24 11:27:49;;;;;;;;;;;;;;;25.53;28.43;94516.72;4996528;28;1092;-49
2022/04/24 11:30:15;;;;;;;;;;;;;;;25.56;28.27;94518.13;4996485;28;1028;-48
2022/04/24 11:32:41;;;;;;;;;;;;;;;25.70;28.66;94516.50;4991856;28;1523;-48
2022/04/24 11:35:07;;;;;;;;;;;;;;;25.60;27.96;94514.56;4996614;28;1037;-48
2022/04/24 11:37:33;;;;;;;;;;;;;;;25.48;27.44;94519.47;4996681;28;1155;-48
2022/04/24 11:40:00;;;;;;;;;;;;;;;25.56;29.02;94515.38;4996352;28;1040;-49
2022/04/24 11:42:26;;;;;;;;;;;;;;;25.70;27.82;94513.75;4996398;28;1028;-48
2022/04/24 11:50:22;;;;;;;;;;;;;;;25.57;27.61;94506.88;4996152;28;1034;-48
2022/04/24 11:52:49;;;;;;;;;;;;;;;25.62;27.89;94504.16;4996296;28;988;-48
2022/04/24 11:55:21;;;;;;;;;;;;;;;25.74;28.22;94509.38;4995918;28;1086;-49
2022/04/24 11:58:01;;;;;;;;;;;;;;;25.79;27.66;94512.13;4943227;28;2212;-49
2022/04/24 12:00:34;;;;;;;;;;;;;;;25.84;27.61;94495.72;4971459;28;1738;-49
2022/04/24 12:03:01;;;;;;;;;;;;;;;26.05;28.16;94495.75;4957342;28;1046;-49
2022/04/24 12:05:30;;;;;;;;;;;;;;;26.25;28.80;94497.66;4920102;28;2644;-50
2022/04/24 12:07:56;;;;;;;;;;;;;;;26.21;27.73;94488.34;4957216;28;1055;-49
2022/04/24 12:10:23;;;;;;;;;;;;;;;26.08;26.65;94496.00;4923359;28;2100;-49
2022/04/24 12:12:50;;;;;;;;;;;;;;;25.89;26.97;94490.22;4973711;28;1203;-48
2022/04/24 12:15:17;;;;;;;;;;;;;;;25.82;27.04;94492.44;4955935;28;960;-49
2022/04/24 12:17:49;;;;;;;;;;;;;;;25.88;27.31;94496.00;4963074;28;1160;-48
2022/04/24 12:20:15;;;;;;;;;;;;;;;25.97;27.17;94486.19;4972459;28;1424;-49
2022/04/24 12:22:41;;;;;;;;;;;;;;;26.13;27.80;94483.44;4958279;28;1593;-49
2022/04/24 12:25:08;;;;;;;;;;;;;;;26.22;27.36;94482.59;4956432;28;1991;-48
2022/04/24 12:27:34;;;;;;;;;;;;;;;26.09;27.84;94485.88;4973144;28;1267;-49
2022/04/24 12:30:03;;;;;;;;;;;;;;;26.00;28.51;94479.31;4975822;28;1034;-66
2022/04/24 12:32:29;;;;;;;;;;;;;;;26.13;27.60;94484.25;4990904;28;1569;-49
2022/04/24 12:34:55;;;;;;;;;;;;;;;26.14;27.23;94483.13;4975714;28;1058;-49
2022/04/24 12:37:34;;;;;;;;;;;;;;;26.12;27.59;94488.06;4975591;28;1021;-48
2022/04/24 12:43:26;;;;;;;;;;;;;;;26.11;27.67;94467.25;4968850;28;1182;-50
2022/04/24 12:45:53;;;;;;;;;;;;;;;26.18;28.04;94465.06;4955816;28;1999;-49
2022/04/24 12:48:19;;;;;;;;;;;;;;;26.15;27.96;94462.88;4955235;28;1920;-48
2022/04/24 12:50:45;;;;;;;;;;;;;;;25.85;26.80;94460.94;4956149;28;1055;-49
2022/04/24 12:53:11;;;;;;;;;;;;;;;25.66;27.13;94466.13;4956212;29;1114;-48
2022/04/24 12:55:37;;;;;;;;;;;;;;;25.80;26.50;94453.56;4955807;29;1096;-48
2022/04/24 12:58:03;;;;;;;;;;;;;;;25.98;26.78;94454.13;4956087;29;1008;-49
2022/04/24 13:00:29;;;;;;;;;;;;;;;26.30;27.18;94451.06;4955579;29;1135;-49
2022/04/24 13:02:55;;;;;;;;;;;;;;;26.27;27.40;94457.94;4956049;28;967;-49
2022/04/24 13:05:21;;;;;;;;;;;;;;;26.24;27.34;94450.25;4955545;29;1907;-49
2022/04/24 13:07:47;;;;;;;;;;;;;;;26.34;27.30;94449.41;4955880;28;1087;-50
2022/04/24 13:10:14;;;;;;;;;;;;;;;26.54;28.02;94445.81;4955543;28;1027;-48
2022/04/24 13:12:40;;;;;;;;;;;;;;;26.71;27.59;94442.75;4955790;28;971;-49
2022/04/24 13:15:06;;;;;;;;;;;;;;;26.66;26.22;94434.56;4955249;29;1127;-48
2022/04/24 13:20:17;;;;;;;;;;;;;;;26.36;27.82;94432.69;4974929;28;989;-48
2022/04/24 13:22:43;;;;;;;;;;;;;;;26.39;27.59;94432.13;4974904;28;1032;-48
2022/04/24 13:25:09;;;;;;;;;;;;;;;26.32;27.89;94426.94;4973909;28;1910;-48
2022/04/24 13:27:35;;;;;;;;;;;;;;;26.20;27.82;94424.53;4974413;28;1084;-48